Terminal Aerodrome Forecast
Issued by NWS

Home | Current Version | Previous Version | Text Only | Print | Product List | Glossary On
Versions: 1 2 3 4 5 6 7 8 9 10 11 12 13 14 15 16 17 18 19 20 21 22 23 24 25 26 27 28 29 30 31 32 33 34 35
000
FTUS43 KDTX 062320
TAFYIP
TAF
KYIP 062320Z 0700/0724 09003KT P6SM SKC
     FM070600 00000KT 3SM BR SKC
     FM070900 00000KT 3/4SM BR VV008
     FM071300 00000KT 2SM BR SKC
     FM071500 14004KT P6SM SKC=

USA.gov is the U.S. government's official web portal to all federal, state and local government web resources and services.